createdAt,value
2018-08-19T00:02:16.293Z,8.03
2018-08-19T00:05:06.481Z,6.63
2018-08-19T00:07:35.610Z,5.87
2018-08-19T00:10:05.869Z,4.60
2018-08-19T00:12:40.298Z,4.30
2018-08-19T00:15:09.406Z,4.27
2018-08-19T00:17:38.554Z,7.37
2018-08-19T00:20:10.963Z,3.23
2018-08-19T00:22:40.170Z,6.03
2018-08-19T00:25:11.011Z,3.73
2018-08-19T00:27:40.076Z,6.23
2018-08-19T00:30:10.005Z,5.20
2018-08-19T00:32:39.103Z,4.30
2018-08-19T00:35:08.234Z,7.53
2018-08-19T00:37:37.453Z,4.70
2018-08-19T00:40:10.752Z,6.97
2018-08-19T00:42:39.945Z,9.80
2018-08-19T00:45:09.061Z,4.30
2018-08-19T00:47:38.193Z,7.57
2018-08-19T00:50:07.440Z,5.60
2018-08-19T00:52:39.173Z,4.23
2018-08-19T00:55:08.406Z,5.00
2018-08-19T00:57:40.279Z,7.00
2018-08-19T01:00:09.459Z,4.37
2018-08-19T01:02:38.581Z,4.97
2018-08-19T01:05:07.726Z,3.90
2018-08-19T01:07:36.871Z,7.07
2018-08-19T01:10:06.026Z,8.93
2018-08-19T01:12:35.143Z,6.30
2018-08-19T01:15:04.916Z,6.00
2018-08-19T01:17:39.314Z,8.87
2018-08-19T01:20:09.275Z,6.37
2018-08-19T01:22:41.015Z,6.07
2018-08-19T01:25:12.402Z,4.00
2018-08-19T01:27:41.553Z,4.63
2018-08-19T01:30:21.232Z,5.47
2018-08-19T01:32:50.379Z,3.90
2018-08-19T01:35:26.880Z,3.50
2018-08-19T01:37:56.010Z,5.17
2018-08-19T01:40:25.131Z,5.23
2018-08-19T01:42:54.233Z,6.40
2018-08-19T01:45:23.403Z,8.23
2018-08-19T01:47:52.574Z,12.20
2018-08-19T01:50:21.784Z,11.50
2018-08-19T01:52:51.274Z,4.60
2018-08-19T01:55:20.520Z,6.00
2018-08-19T01:57:50.683Z,5.20
2018-08-19T02:00:19.955Z,8.13
2018-08-19T02:03:04.660Z,5.70
2018-08-19T02:05:33.772Z,3.77
2018-08-19T02:08:03.954Z,5.13
2018-08-19T02:10:34.557Z,10.83
2018-08-19T02:13:03.820Z,3.73
2018-08-19T02:15:33.624Z,5.53
2018-08-19T02:18:04.827Z,4.67
2018-08-19T02:20:38.912Z,5.20
2018-08-19T02:23:09.616Z,8.20
2018-08-19T02:25:42.800Z,5.83
2018-08-19T02:28:12.590Z,7.73
2018-08-19T02:30:53.012Z,5.67
2018-08-19T02:33:23.306Z,6.67
2018-08-19T02:36:00.666Z,4.90
2018-08-19T02:38:29.899Z,7.70
2018-08-19T02:40:59.008Z,8.27
2018-08-19T02:43:28.167Z,5.00
2018-08-19T02:45:57.307Z,6.10
2018-08-19T02:48:45.698Z,5.27
2018-08-19T02:51:16.170Z,10.80
2018-08-19T02:53:46.461Z,5.73
2018-08-19T02:56:16.240Z,11.40
2018-08-19T02:58:46.523Z,8.67
2018-08-19T03:01:16.709Z,5.50
2018-08-19T03:03:45.839Z,7.43
2018-08-19T03:06:14.943Z,4.77
2018-08-19T03:08:50.149Z,6.73
2018-08-19T03:11:21.302Z,9.57
2018-08-19T03:13:50.487Z,7.30
2018-08-19T03:16:19.641Z,6.27
2018-08-19T03:18:51.146Z,5.33
2018-08-19T03:21:21.035Z,5.80
2018-08-19T03:23:51.785Z,6.37
2018-08-19T03:26:20.901Z,9.43
2018-08-19T03:28:50.050Z,11.60
2018-08-19T03:31:19.236Z,7.23
2018-08-19T03:33:48.354Z,6.23
2018-08-19T03:36:17.497Z,6.40
2018-08-19T03:38:46.606Z,8.97
2018-08-19T03:41:15.764Z,7.20
2018-08-19T03:43:49.001Z,6.20
2018-08-19T03:46:20.823Z,5.77
2018-08-19T03:48:50.365Z,8.40
2018-08-19T03:51:19.541Z,8.40
2018-08-19T03:53:48.759Z,7.20
2018-08-19T03:56:23.248Z,9.37
2018-08-19T03:58:56.243Z,9.57
2018-08-19T04:01:38.309Z,7.03
2018-08-19T04:04:07.503Z,6.97
2018-08-19T04:06:38.873Z,7.07
2018-08-19T04:09:08.245Z,6.30
2018-08-19T04:11:37.397Z,16.20
2018-08-19T04:14:26.193Z,8.90
2018-08-19T04:16:57.873Z,15.50
2018-08-19T04:19:27.665Z,6.53
2018-08-19T04:22:00.367Z,5.80
2018-08-19T04:24:29.962Z,8.43
2018-08-19T04:26:59.258Z,5.47
2018-08-19T04:29:28.979Z,7.53
2018-08-19T04:31:58.092Z,8.23
2018-08-19T04:34:27.309Z,9.60
2018-08-19T04:36:56.514Z,8.63
2018-08-19T04:39:25.601Z,9.90
2018-08-19T04:41:54.752Z,6.57
2018-08-19T04:44:23.892Z,8.20
2018-08-19T04:46:53.055Z,6.33
2018-08-19T04:49:22.243Z,12.00
2018-08-19T04:51:51.396Z,9.43
2018-08-19T04:54:20.564Z,9.93
2018-08-19T04:56:49.670Z,7.33
2018-08-19T04:59:18.811Z,8.17
2018-08-19T05:01:47.945Z,7.30
2018-08-19T05:04:17.136Z,12.30
2018-08-19T05:06:46.253Z,7.60
2018-08-19T05:09:15.387Z,6.13
2018-08-19T05:11:44.497Z,19.33
2018-08-19T05:14:13.672Z,6.60
2018-08-19T05:16:42.865Z,7.03
2018-08-19T05:19:12.037Z,7.70
2018-08-19T05:21:41.167Z,10.30
2018-08-19T05:24:10.342Z,8.77
2018-08-19T05:26:39.446Z,7.60
2018-08-19T05:29:10.904Z,6.43
2018-08-19T05:31:46.184Z,6.37
2018-08-19T05:34:20.739Z,7.90
2018-08-19T05:36:51.594Z,9.80
2018-08-19T05:39:20.761Z,7.43
2018-08-19T05:42:03.192Z,10.07
2018-08-19T05:44:34.700Z,9.20
2018-08-19T05:47:08.242Z,15.57
2018-08-19T05:49:39.090Z,10.43
2018-08-19T05:52:15.315Z,10.97
2018-08-19T05:54:49.883Z,8.37
2018-08-19T05:57:19.085Z,7.40
2018-08-19T05:59:49.449Z,7.03
2018-08-19T06:02:53.383Z,10.73
2018-08-19T06:05:22.522Z,11.10
2018-08-19T06:07:59.715Z,5.63
2018-08-19T06:10:28.951Z,10.47
2018-08-19T06:12:58.522Z,7.90
2018-08-19T06:15:28.804Z,6.70
2018-08-19T06:17:57.993Z,14.03
2018-08-19T06:20:29.617Z,10.30
2018-08-19T06:22:58.688Z,11.87
2018-08-19T06:25:27.973Z,9.10
2018-08-19T06:27:58.238Z,12.30
2018-08-19T06:30:27.351Z,10.80
2018-08-19T06:32:56.473Z,10.17
2018-08-19T06:35:25.643Z,17.47
2018-08-19T06:37:54.731Z,13.53
2018-08-19T06:40:24.583Z,12.27
2018-08-19T06:42:53.714Z,15.00
2018-08-19T06:45:22.844Z,11.03
2018-08-19T06:47:52.011Z,18.37
2018-08-19T06:50:24.425Z,16.40
2018-08-19T06:52:54.658Z,11.73
2018-08-19T06:55:23.788Z,12.83
2018-08-19T06:57:53.311Z,15.60
2018-08-19T07:00:31.623Z,14.20
2018-08-19T07:03:03.740Z,16.87
2018-08-19T07:05:33.634Z,18.50
2018-08-19T07:08:03.153Z,11.07
2018-08-19T07:10:36.509Z,14.53
2018-08-19T07:13:14.614Z,20.87
2018-08-19T07:15:44.653Z,20.87
2018-08-19T07:18:15.180Z,16.20
2018-08-19T07:20:45.059Z,16.80
2018-08-19T07:23:14.443Z,19.70
2018-08-19T07:25:44.562Z,13.50
2018-08-19T07:28:15.474Z,19.27
2018-08-19T07:30:44.685Z,15.97
2018-08-19T07:33:14.357Z,14.10
2018-08-19T07:35:43.650Z,11.43
2018-08-19T07:38:12.756Z,11.20
2018-08-19T07:40:41.797Z,10.70
2018-08-19T07:43:11.075Z,10.80
2018-08-19T07:45:40.207Z,19.00
2018-08-19T07:48:09.300Z,10.57
2018-08-19T07:50:38.424Z,12.87
2018-08-19T07:53:07.611Z,9.47
2018-08-19T07:55:36.697Z,12.77
2018-08-19T07:58:06.165Z,8.37
2018-08-19T08:00:39.175Z,12.10
2018-08-19T08:03:08.522Z,9.73
2018-08-19T08:05:42.905Z,9.80
2018-08-19T08:08:12.092Z,8.63
2018-08-19T08:10:41.191Z,7.07
2018-08-19T08:13:12.405Z,11.30
2018-08-19T08:15:46.655Z,12.20
2018-08-19T08:18:15.803Z,12.97
2018-08-19T08:20:44.906Z,12.73
2018-08-19T08:23:26.265Z,11.57
2018-08-19T08:25:55.342Z,14.33
2018-08-19T08:28:24.487Z,5.83
2018-08-19T08:30:53.661Z,12.20
2018-08-19T08:33:22.842Z,6.27
2018-08-19T08:35:58.113Z,9.23
2018-08-19T08:38:27.246Z,9.77
2018-08-19T08:40:56.299Z,5.90
2018-08-19T08:43:25.465Z,9.03
2018-08-19T08:45:57.365Z,11.70
2018-08-19T08:48:26.821Z,9.83
2018-08-19T08:50:56.085Z,10.43
2018-08-19T08:53:32.039Z,13.00
2018-08-19T08:56:01.352Z,14.03
2018-08-19T08:58:30.515Z,10.03
2018-08-19T09:00:59.817Z,10.90
2018-08-19T09:03:28.990Z,10.23
2018-08-19T09:05:58.295Z,14.97
2018-08-19T09:08:28.068Z,12.77
2018-08-19T09:10:59.187Z,12.53
2018-08-19T09:13:28.461Z,11.37
2018-08-19T09:15:57.656Z,14.00
2018-08-19T09:18:26.774Z,13.83
2018-08-19T09:20:55.856Z,10.47
2018-08-19T09:23:25.056Z,6.90
2018-08-19T09:25:54.131Z,7.73
2018-08-19T09:28:23.263Z,5.90
2018-08-19T09:30:52.376Z,6.90
2018-08-19T09:33:21.514Z,5.43
2018-08-19T09:35:50.739Z,7.00
2018-08-19T09:38:22.040Z,2.70
2018-08-19T09:40:51.343Z,2.67
2018-08-19T09:43:20.479Z,2.90
2018-08-19T09:45:49.663Z,5.23
2018-08-19T09:48:18.990Z,13.03
2018-08-19T09:50:48.094Z,1.63
2018-08-19T09:53:17.169Z,6.60
2018-08-19T09:55:51.994Z,8.03
2018-08-19T09:58:22.245Z,2.90
2018-08-19T10:00:56.694Z,4.27
2018-08-19T10:03:25.773Z,2.33
2018-08-19T10:05:54.878Z,1.87
2018-08-19T10:08:24.715Z,2.10
2018-08-19T10:10:53.871Z,4.43
2018-08-19T10:13:22.988Z,3.43
2018-08-19T10:15:52.309Z,2.40
2018-08-19T10:18:21.458Z,3.37
2018-08-19T10:20:50.583Z,2.33
2018-08-19T10:23:23.121Z,3.53
2018-08-19T10:25:53.105Z,5.77
2018-08-19T10:28:28.647Z,3.27
2018-08-19T10:30:58.096Z,4.87
2018-08-19T10:33:27.168Z,2.37
2018-08-19T10:35:59.016Z,4.53
2018-08-19T10:38:28.278Z,4.90
2018-08-19T10:41:03.460Z,2.73
2018-08-19T10:43:32.607Z,3.90
2018-08-19T10:46:01.703Z,5.23
2018-08-19T10:48:31.333Z,4.70
2018-08-19T10:51:03.239Z,4.10
2018-08-19T10:53:32.465Z,2.40
2018-08-19T10:56:02.922Z,5.73
2018-08-19T10:58:32.065Z,4.17
2018-08-19T11:01:01.166Z,5.50
2018-08-19T11:03:31.511Z,2.50
2018-08-19T11:06:00.642Z,4.30
2018-08-19T11:08:29.727Z,2.20
2018-08-19T11:11:00.290Z,3.47
2018-08-19T11:13:29.578Z,2.20
2018-08-19T11:15:59.242Z,4.50
2018-08-19T11:18:37.200Z,5.40
2018-08-19T11:21:12.128Z,10.67
2018-08-19T11:23:42.583Z,9.80
2018-08-19T11:26:11.943Z,7.60
2018-08-19T11:28:46.776Z,4.40
2018-08-19T11:31:22.643Z,4.03
2018-08-19T11:33:52.521Z,6.37
2018-08-19T11:36:24.514Z,2.93
2018-08-19T11:38:53.744Z,5.23
2018-08-19T11:41:22.862Z,2.03
2018-08-19T11:43:52.088Z,3.47
2018-08-19T11:46:21.158Z,3.27
2018-08-19T11:48:55.327Z,10.80
2018-08-19T11:51:41.459Z,3.13
2018-08-19T11:54:12.278Z,5.83
2018-08-19T11:56:41.351Z,4.27
2018-08-19T11:59:10.502Z,3.53
2018-08-19T12:01:39.704Z,5.90
2018-08-19T12:04:12.172Z,2.97
2018-08-19T12:06:41.240Z,2.27
2018-08-19T12:09:11.072Z,3.87
2018-08-19T12:11:41.214Z,4.70
2018-08-19T12:14:12.632Z,3.93
2018-08-19T12:16:50.456Z,5.17
2018-08-19T12:19:19.735Z,4.00
2018-08-19T12:21:54.422Z,4.00
2018-08-19T12:24:34.715Z,5.10
2018-08-19T12:27:05.054Z,6.40
2018-08-19T12:29:35.304Z,8.33
2018-08-19T12:32:14.935Z,3.50
2018-08-19T12:34:47.166Z,3.53
2018-08-19T12:37:17.294Z,5.43
2018-08-19T12:39:46.605Z,5.10
2018-08-19T12:42:15.739Z,3.97
2018-08-19T12:44:53.314Z,3.27
2018-08-19T12:47:25.599Z,3.13
2018-08-19T12:49:58.894Z,4.70
2018-08-19T12:52:29.325Z,7.30
2018-08-19T12:55:04.085Z,4.10
2018-08-19T12:57:33.552Z,8.87
2018-08-19T13:00:18.039Z,9.47
2018-08-19T13:02:49.139Z,3.83
2018-08-19T13:05:19.179Z,4.20
2018-08-19T13:07:48.308Z,4.83
2018-08-19T13:10:17.869Z,2.27
2018-08-19T13:12:52.103Z,5.27
2018-08-19T13:15:21.773Z,2.97
2018-08-19T13:17:57.538Z,2.90
2018-08-19T13:20:26.955Z,4.50
2018-08-19T13:22:59.501Z,2.57
2018-08-19T13:25:28.824Z,7.30
2018-08-19T13:27:57.986Z,4.00
2018-08-19T13:30:27.109Z,1.80
2018-08-19T13:32:56.229Z,4.33
2018-08-19T13:35:25.340Z,5.77
2018-08-19T13:37:54.538Z,3.47
2018-08-19T13:40:23.679Z,4.73
2018-08-19T13:42:52.735Z,3.67
2018-08-19T13:45:22.681Z,2.40
2018-08-19T13:47:54.154Z,4.10
2018-08-19T13:50:23.257Z,4.20
2018-08-19T13:52:59.230Z,2.33
2018-08-19T13:55:28.417Z,5.53
2018-08-19T13:57:57.525Z,1.87
2018-08-19T14:00:30.712Z,8.00
2018-08-19T14:02:59.878Z,8.37
2018-08-19T14:05:28.970Z,8.73
2018-08-19T14:07:58.095Z,3.73
2018-08-19T14:10:27.248Z,4.43
2018-08-19T14:12:56.359Z,5.83
2018-08-19T14:15:25.464Z,4.10
2018-08-19T14:17:54.555Z,2.53
2018-08-19T14:20:23.658Z,2.17
2018-08-19T14:22:52.807Z,5.37
2018-08-19T14:25:21.961Z,2.57
2018-08-19T14:27:51.163Z,3.43
2018-08-19T14:30:20.307Z,1.80
2018-08-19T14:32:49.485Z,5.30
2018-08-19T14:35:18.627Z,2.30
2018-08-19T14:37:47.731Z,2.03
2018-08-19T14:40:18.524Z,2.93
2018-08-19T14:42:47.661Z,3.23
2018-08-19T14:45:16.796Z,2.17
2018-08-19T14:47:45.963Z,2.90
2018-08-19T14:50:17.411Z,2.50
2018-08-19T14:52:46.607Z,2.03
2018-08-19T14:55:15.920Z,3.90
2018-08-19T14:57:45.165Z,4.83
2018-08-19T15:00:16.126Z,4.30
2018-08-19T15:02:45.405Z,2.03
2018-08-19T15:05:17.606Z,3.03
2018-08-19T15:07:47.004Z,2.20
2018-08-19T15:10:20.379Z,3.17
2018-08-19T15:12:49.577Z,2.17
2018-08-19T15:15:18.761Z,3.87
2018-08-19T15:17:53.019Z,2.60
2018-08-19T15:20:27.167Z,6.50
2018-08-19T15:23:19.217Z,2.27
2018-08-19T15:25:48.393Z,2.30
2018-08-19T15:28:18.197Z,5.70
2018-08-19T15:30:47.350Z,3.40
2018-08-19T15:33:16.940Z,1.53
2018-08-19T15:35:46.107Z,1.87
2018-08-19T15:38:15.293Z,3.07
2018-08-19T15:40:48.030Z,1.67
2018-08-19T15:43:17.275Z,2.03
2018-08-19T15:45:46.680Z,2.10
2018-08-19T15:48:15.817Z,1.87
2018-08-19T15:50:44.968Z,2.47
2018-08-19T15:53:14.140Z,2.30
2018-08-19T15:55:43.296Z,2.90
2018-08-19T15:58:12.433Z,5.40
2018-08-19T16:00:42.406Z,1.73
2018-08-19T16:03:12.665Z,1.87
2018-08-19T16:05:41.815Z,1.70
2018-08-19T16:08:11.028Z,2.90
2018-08-19T16:10:40.160Z,3.83
2018-08-19T16:13:11.198Z,1.80
2018-08-19T16:15:40.368Z,4.10
2018-08-19T16:18:09.642Z,5.90
2018-08-19T16:20:38.777Z,1.70
2018-08-19T16:23:07.906Z,1.93
2018-08-19T16:25:36.999Z,3.37
2018-08-19T16:28:06.292Z,2.47
2018-08-19T16:30:35.430Z,2.27
2018-08-19T16:33:04.626Z,2.70
2018-08-19T16:35:33.801Z,2.10
2018-08-19T16:38:02.942Z,1.57
2018-08-19T16:40:32.073Z,1.97
2018-08-19T16:43:07.920Z,2.30
2018-08-19T16:45:37.038Z,2.87
2018-08-19T16:48:06.577Z,1.90
2018-08-19T16:50:35.836Z,6.23
2018-08-19T16:53:04.847Z,1.53
2018-08-19T16:55:35.057Z,2.17
2018-08-19T16:58:04.237Z,1.60
2018-08-19T17:00:33.402Z,4.20
2018-08-19T17:03:12.712Z,2.20
2018-08-19T17:05:41.889Z,4.00
2018-08-19T17:08:11.092Z,1.60
2018-08-19T17:10:40.195Z,6.57
2018-08-19T17:13:09.397Z,3.50
2018-08-19T17:15:38.535Z,3.27
2018-08-19T17:18:08.315Z,2.13
2018-08-19T17:20:37.475Z,3.07
2018-08-19T17:23:06.587Z,1.63
2018-08-19T17:25:35.669Z,2.07
2018-08-19T17:28:10.207Z,2.03
2018-08-19T17:30:39.334Z,2.03
2018-08-19T17:33:09.619Z,4.43
2018-08-19T17:35:40.334Z,8.70
2018-08-19T17:38:09.512Z,2.33
2018-08-19T17:40:38.654Z,2.77
2018-08-19T17:43:08.251Z,4.50
2018-08-19T17:45:37.553Z,6.53
2018-08-19T17:48:06.674Z,2.60
2018-08-19T17:50:39.055Z,6.40
2018-08-19T17:53:08.566Z,6.50
2018-08-19T17:55:37.728Z,4.27
2018-08-19T17:58:07.044Z,4.53
2018-08-19T18:00:36.217Z,3.57
2018-08-19T18:03:05.378Z,4.10
2018-08-19T18:05:34.519Z,9.27
2018-08-19T18:08:03.637Z,9.80
2018-08-19T18:10:32.943Z,11.40
2018-08-19T18:13:02.199Z,3.83
2018-08-19T18:15:31.319Z,5.80
2018-08-19T18:18:04.750Z,4.60
2018-08-19T18:20:37.455Z,4.80
2018-08-19T18:23:15.919Z,6.50
2018-08-19T18:25:49.267Z,6.47
2018-08-19T18:28:22.949Z,10.03
2018-08-19T18:31:08.178Z,4.30
2018-08-19T18:34:00.234Z,6.87
2018-08-19T18:36:31.449Z,5.33
2018-08-19T18:39:00.926Z,5.87
2018-08-19T18:41:36.759Z,4.30
2018-08-19T18:44:07.097Z,4.40
2018-08-19T18:46:36.598Z,5.07
2018-08-19T18:49:12.855Z,6.20
2018-08-19T18:51:44.701Z,4.10
2018-08-19T18:54:21.984Z,2.97
2018-08-19T18:56:51.102Z,2.20
2018-08-19T18:59:20.263Z,6.67
2018-08-19T19:01:49.394Z,4.50
2018-08-19T19:04:18.566Z,6.23
2018-08-19T19:06:47.738Z,2.77
2018-08-19T19:09:16.940Z,4.33
2018-08-19T19:11:47.242Z,4.93
2018-08-19T19:14:20.520Z,4.53
2018-08-19T19:16:51.542Z,11.20
2018-08-19T19:19:20.860Z,8.90
2018-08-19T19:21:55.439Z,7.90
2018-08-19T19:24:30.030Z,12.73
2018-08-19T19:26:59.204Z,10.20
2018-08-19T19:29:29.028Z,11.83
2018-08-19T19:31:59.452Z,10.20
2018-08-19T19:34:31.298Z,7.70
2018-08-19T19:37:02.522Z,7.80
2018-08-19T19:39:31.792Z,5.30
2018-08-19T19:42:09.375Z,6.30
2018-08-19T19:44:38.523Z,6.50
2018-08-19T19:47:09.434Z,3.70
2018-08-19T19:49:48.435Z,5.37
2018-08-19T19:52:17.651Z,4.93
2018-08-19T19:54:46.770Z,4.20
2018-08-19T19:57:15.859Z,4.00
2018-08-19T19:59:45.072Z,4.87
2018-08-19T20:02:19.587Z,5.70
2018-08-19T20:04:48.747Z,3.37
2018-08-19T20:07:18.062Z,3.47
2018-08-19T20:09:47.223Z,3.87
2018-08-19T20:12:22.558Z,7.50
2018-08-19T20:14:51.836Z,5.63
2018-08-19T20:17:21.765Z,8.37
2018-08-19T20:19:51.324Z,5.23
2018-08-19T20:22:20.456Z,9.50
2018-08-19T20:24:49.566Z,3.17
2018-08-19T20:27:25.277Z,2.73
2018-08-19T20:29:55.148Z,9.03
2018-08-19T20:32:24.368Z,3.57
2018-08-19T20:34:53.539Z,6.90
2018-08-19T20:37:24.523Z,10.03
2018-08-19T20:39:54.233Z,3.87
2018-08-19T20:42:23.453Z,3.10
2018-08-19T20:44:53.030Z,3.00
2018-08-19T20:47:22.269Z,2.60
2018-08-19T20:49:51.601Z,4.73
2018-08-19T20:52:32.356Z,3.90
2018-08-19T20:55:01.524Z,2.30
2018-08-19T20:57:30.652Z,3.47
2018-08-19T20:59:59.896Z,2.63
2018-08-19T21:02:29.102Z,4.13
2018-08-19T21:04:58.260Z,4.90
2018-08-19T21:07:27.394Z,9.90
2018-08-19T21:09:56.487Z,5.00
2018-08-19T21:12:25.615Z,3.23
2018-08-19T21:14:54.853Z,4.00
2018-08-19T21:17:23.854Z,3.63
2018-08-19T21:19:53.014Z,3.60
2018-08-19T21:22:23.503Z,4.13
2018-08-19T21:24:52.622Z,10.13
2018-08-19T21:27:21.780Z,5.20
2018-08-19T21:29:51.000Z,4.73
2018-08-19T21:32:20.105Z,5.40
2018-08-19T21:34:49.234Z,4.33
2018-08-19T21:37:34.899Z,9.27
2018-08-19T21:40:05.216Z,5.90
2018-08-19T21:42:47.222Z,14.87
2018-08-19T21:45:16.356Z,7.70
2018-08-19T21:47:45.472Z,4.60
2018-08-19T21:50:14.633Z,6.50
2018-08-19T21:53:00.718Z,7.27
2018-08-19T21:55:32.046Z,6.60
2018-08-19T21:58:01.840Z,6.10
2018-08-19T22:00:40.529Z,8.43
2018-08-19T22:03:18.735Z,9.50
2018-08-19T22:05:48.800Z,6.30
2018-08-19T22:08:18.173Z,7.67
2018-08-19T22:10:48.282Z,7.30
2018-08-19T22:13:17.420Z,11.40
2018-08-19T22:15:47.186Z,7.90
2018-08-19T22:18:17.688Z,8.83
2018-08-19T22:21:07.925Z,7.20
2018-08-19T22:23:42.345Z,5.93
2018-08-19T22:26:12.422Z,7.83
2018-08-19T22:28:41.978Z,10.70
2018-08-19T22:31:25.418Z,6.60
2018-08-19T22:33:56.854Z,6.27
2018-08-19T22:36:26.136Z,7.90
2018-08-19T22:38:55.968Z,10.13
2018-08-19T22:41:27.410Z,7.73
2018-08-19T22:43:57.109Z,9.20
2018-08-19T22:46:26.905Z,10.23
2018-08-19T22:48:56.653Z,9.87
2018-08-19T22:51:28.626Z,15.20
2018-08-19T22:53:57.789Z,13.90
2018-08-19T22:56:26.967Z,9.53
2018-08-19T22:58:56.105Z,11.40
2018-08-19T23:01:29.319Z,13.20
2018-08-19T23:04:02.895Z,12.10
2018-08-19T23:06:32.717Z,12.63
2018-08-19T23:09:02.365Z,10.23
2018-08-19T23:11:37.056Z,12.60
2018-08-19T23:15:26.064Z,10.83
2018-08-19T23:17:55.134Z,10.70
2018-08-19T23:20:24.298Z,13.60
2018-08-19T23:22:53.424Z,14.37
2018-08-19T23:25:22.591Z,10.83
2018-08-19T23:27:51.774Z,12.50
2018-08-19T23:30:20.967Z,12.53
2018-08-19T23:32:50.108Z,11.87
2018-08-19T23:35:19.240Z,15.87
2018-08-19T23:37:48.346Z,12.07
2018-08-19T23:40:17.512Z,15.63
2018-08-19T23:42:46.656Z,15.93
2018-08-19T23:45:15.784Z,14.00
2018-08-19T23:47:44.877Z,10.13
2018-08-19T23:50:14.103Z,12.03
2018-08-19T23:52:43.555Z,12.47
2018-08-19T23:55:12.763Z,11.73
2018-08-19T23:57:41.980Z,17.17
